1555 UTC 24 November 2014 found at http://aviationweather.gov/adds/metars/
 
METAR text: KMNH 241535Z AUTO 28012G19KT 10SM SCT050 BKN070 OVC100 M02/M12 A2991 RMK AO2
Conditions at: KMNH (MONUMENT/ELBERT , CO, US) observed 1535 UTC 24 November 2014
Temperature: -2.0°C (28°F)
Dewpoint: -12.0°C (10°F) [RH = 46%]
Pressure (altimeter): 29.91 inches Hg (1013.0 mb)
Winds: from the W (280 degrees) at 14 MPH (12 knots; 6.2 m/sgusting to 22 MPH (19 knots; 9.9 m/s)
Visibility: 10 or more miles (16+ km)
Ceiling: 7000 feet AGL
Clouds: scattered clouds at 5000 feet AGL
broken clouds at 7000 feet AGL
overcast cloud deck at 10000 feet AGL
Weather: automated observation with no human augmentation;
there may or may not be significant weather present at this time

METAR text: KMNH 241515Z AUTO 28014G17KT 10SM SCT070 BKN100 M02/M11 A2989 RMK AO2
Conditions at: KMNH (MONUMENT/ELBERT , CO, US) observed 1515 UTC 24 November 2014
Temperature: -2.0°C (28°F)
Dewpoint: -11.0°C (12°F) [RH = 50%]
Pressure (altimeter): 29.89 inches Hg (1012.3 mb)
Winds: from the W (280 degrees) at 16 MPH (14 knots; 7.3 m/sgusting to 20 MPH (17 knots; 8.8 m/s)
Visibility: 10 or more miles (16+ km)
Ceiling: 10000 feet AGL
Clouds: scattered clouds at 7000 feet AGL
broken clouds at 10000 feet AGL
Weather: automated observation with no human augmentation;
there may or may not be significant weather present at this time

METAR text: KMNH 241455Z AUTO 28010KT 10SM CLR M05/M12 A2989 RMK AO2
Conditions at: KMNH (MONUMENT/ELBERT , CO, US) observed 1455 UTC 24 November 2014
Temperature: -5.0°C (23°F)
Dewpoint: -12.0°C (10°F) [RH = 58%]
Pressure (altimeter): 29.89 inches Hg (1012.3 mb)
Winds: from the W (280 degrees) at 12 MPH (10 knots; 5.2 m/s)
Visibility: 10 or more miles (16+ km)
Ceiling: at least 12,000 feet AGL
Clouds: sky clear below 12,000 feet AGL
Weather: automated observation with no human augmentation;
there may or may not be significant weather present at this time

METAR text: KMNH 241435Z AUTO 28008KT 10SM CLR M06/M13 A2989 RMK AO2
Conditions at: KMNH (MONUMENT/ELBERT , CO, US) observed 1435 UTC 24 November 2014
Temperature: -6.0°C (21°F)
Dewpoint: -13.0°C (9°F) [RH = 58%]
Pressure (altimeter): 29.89 inches Hg (1012.3 mb)
Winds: from the W (280 degrees) at 9 MPH (8 knots; 4.2 m/s)
Visibility: 10 or more miles (16+ km)
Ceiling: at least 12,000 feet AGL
Clouds: sky clear below 12,000 feet AGL
Weather: automated observation with no human augmentation;
there may or may not be significant weather present at this time

METAR text: KMNH 241415Z AUTO 28007KT 10SM CLR M08/M15 A2989 RMK AO2
Conditions at: KMNH (MONUMENT/ELBERT , CO, US) observed 1415 UTC 24 November 2014
Temperature: -8.0°C (18°F)
Dewpoint: -15.0°C (5°F) [RH = 57%]
Pressure (altimeter): 29.89 inches Hg (1012.3 mb)
Winds: from the W (280 degrees) at 8 MPH (7 knots; 3.6 m/s)
Visibility: 10 or more miles (16+ km)
Ceiling: at least 12,000 feet AGL
Clouds: sky clear below 12,000 feet AGL
Weather: automated observation with no human augmentation;
there may or may not be significant weather present at this time

METAR text: KMNH 241355Z AUTO 26007KT 10SM CLR M09/M16 A2988 RMK AO2
Conditions at: KMNH (MONUMENT/ELBERT , CO, US) observed 1355 UTC 24 November 2014
Temperature: -9.0°C (16°F)
Dewpoint: -16.0°C (3°F) [RH = 57%]
Pressure (altimeter): 29.88 inches Hg (1011.9 mb)
Winds: from the W (260 degrees) at 8 MPH (7 knots; 3.6 m/s)
Visibility: 10 or more miles (16+ km)
Ceiling: at least 12,000 feet AGL
Clouds: sky clear below 12,000 feet AGL
Weather: automated observation with no human augmentation;
there may or may not be significant weather present at this time

METAR text: KMNH 241334Z AUTO 27006KT 10SM CLR M07/M15 A2987 RMK AO2
Conditions at: KMNH (MONUMENT/ELBERT , CO, US) observed 1334 UTC 24 November 2014
Temperature: -7.0°C (19°F)
Dewpoint: -15.0°C (5°F) [RH = 53%]
Pressure (altimeter): 29.87 inches Hg (1011.6 mb)
Winds: from the W (270 degrees) at 7 MPH (6 knots; 3.1 m/s)
Visibility: 10 or more miles (16+ km)
Ceiling: at least 12,000 feet AGL
Clouds: sky clear below 12,000 feet AGL
Weather: automated observation with no human augmentation;
there may or may not be significant weather present at this time

METAR text: KMNH 241315Z AUTO 26009KT 10SM CLR M07/M14 A2986 RMK AO2
Conditions at: KMNH (MONUMENT/ELBERT , CO, US) observed 1315 UTC 24 November 2014
Temperature: -7.0°C (19°F)
Dewpoint: -14.0°C (7°F) [RH = 57%]
Pressure (altimeter): 29.86 inches Hg (1011.3 mb)
Winds: from the W (260 degrees) at 10 MPH (9 knots; 4.7 m/s)
Visibility: 10 or more miles (16+ km)
Ceiling: at least 12,000 feet AGL
Clouds: sky clear below 12,000 feet AGL
Weather: automated observation with no human augmentation;
there may or may not be significant weather present at this time

METAR text: KMNH 241255Z AUTO 25008KT 10SM CLR M07/M14 A2986 RMK AO2
Conditions at: KMNH (MONUMENT/ELBERT , CO, US) observed 1255 UTC 24 November 2014
Temperature: -7.0°C (19°F)
Dewpoint: -14.0°C (7°F) [RH = 57%]
Pressure (altimeter): 29.86 inches Hg (1011.3 mb)
Winds: from the WSW (250 degrees) at 9 MPH (8 knots; 4.2 m/s)
Visibility: 10 or more miles (16+ km)
Ceiling: at least 12,000 feet AGL
Clouds: sky clear below 12,000 feet AGL
Weather: automated observation with no human augmentation;
there may or may not be significant weather present at this time

METAR text: KMNH 241235Z AUTO 25011KT 10SM CLR M07/M13 A2985 RMK AO2
Conditions at: KMNH (MONUMENT/ELBERT , CO, US) observed 1235 UTC 24 November 2014
Temperature: -7.0°C (19°F)
Dewpoint: -13.0°C (9°F) [RH = 62%]
Pressure (altimeter): 29.85 inches Hg (1010.9 mb)
Winds: from the WSW (250 degrees) at 13 MPH (11 knots; 5.7 m/s)
Visibility: 10 or more miles (16+ km)
Ceiling: at least 12,000 feet AGL
Clouds: sky clear below 12,000 feet AGL
Weather: automated observation with no human augmentation;
there may or may not be significant weather present at this time

METAR text: KMNH 241215Z AUTO 26007KT 10SM CLR M08/M14 A2985 RMK AO2
Conditions at: KMNH (MONUMENT/ELBERT , CO, US) observed 1215 UTC 24 November 2014
Temperature: -8.0°C (18°F)
Dewpoint: -14.0°C (7°F) [RH = 62%]
Pressure (altimeter): 29.85 inches Hg (1010.9 mb)
Winds: from the W (260 degrees) at 8 MPH (7 knots; 3.6 m/s)
Visibility: 10 or more miles (16+ km)
Ceiling: at least 12,000 feet AGL
Clouds: sky clear below 12,000 feet AGL
Weather: automated observation with no human augmentation;
there may or may not be significant weather present at this time

METAR text: KMNH 241155Z AUTO 25009KT 10SM CLR M08/M13 A2985 RMK AO2
Conditions at: KMNH (MONUMENT/ELBERT , CO, US) observed 1155 UTC 24 November 2014
Temperature: -8.0°C (18°F)
Dewpoint: -13.0°C (9°F) [RH = 67%]
Pressure (altimeter): 29.85 inches Hg (1010.9 mb)
Winds: from the WSW (250 degrees) at 10 MPH (9 knots; 4.7 m/s)
Visibility: 10 or more miles (16+ km)
Ceiling: at least 12,000 feet AGL
Clouds: sky clear below 12,000 feet AGL
Weather: automated observation with no human augmentation;
there may or may not be significant weather present at this time

METAR text: KMNH 241135Z AUTO 26009KT 10SM CLR M10/M15 A2984 RMK AO2
Conditions at: KMNH (MONUMENT/ELBERT , CO, US) observed 1135 UTC 24 November 2014
Temperature: -10.0°C (14°F)
Dewpoint: -15.0°C (5°F) [RH = 67%]
Pressure (altimeter): 29.84 inches Hg (1010.6 mb)
Winds: from the W (260 degrees) at 10 MPH (9 knots; 4.7 m/s)
Visibility: 10 or more miles (16+ km)
Ceiling: at least 12,000 feet AGL
Clouds: sky clear below 12,000 feet AGL
Weather: automated observation with no human augmentation;
there may or may not be significant weather present at this time

METAR text: KMNH 241115Z AUTO 27008KT 10SM SCT100 M10/M16 A2984 RMK AO2
Conditions at: KMNH (MONUMENT/ELBERT , CO, US) observed 1115 UTC 24 November 2014
Temperature: -10.0°C (14°F)
Dewpoint: -16.0°C (3°F) [RH = 61%]
Pressure (altimeter): 29.84 inches Hg (1010.6 mb)
Winds: from the W (270 degrees) at 9 MPH (8 knots; 4.2 m/s)
Visibility: 10 or more miles (16+ km)
Ceiling: at least 12,000 feet AGL
Clouds: scattered clouds at 10000 feet AGL
Weather: automated observation with no human augmentation;
there may or may not be significant weather present at this time

METAR text: KMNH 241055Z AUTO 27008KT 10SM CLR M10/M16 A2984 RMK AO2
Conditions at: KMNH (MONUMENT/ELBERT , CO, US) observed 1055 UTC 24 November 2014
Temperature: -10.0°C (14°F)
Dewpoint: -16.0°C (3°F) [RH = 61%]
Pressure (altimeter): 29.84 inches Hg (1010.6 mb)
Winds: from the W (270 degrees) at 9 MPH (8 knots; 4.2 m/s)
Visibility: 10 or more miles (16+ km)
Ceiling: at least 12,000 feet AGL
Clouds: sky clear below 12,000 feet AGL
Weather: automated observation with no human augmentation;
there may or may not be significant weather present at this time

METAR text: KMNH 241035Z AUTO 25009KT 10SM CLR M11/M16 A2984 RMK AO2
Conditions at: KMNH (MONUMENT/ELBERT , CO, US) observed 1035 UTC 24 November 2014
Temperature: -11.0°C (12°F)
Dewpoint: -16.0°C (3°F) [RH = 67%]
Pressure (altimeter): 29.84 inches Hg (1010.6 mb)
Winds: from the WSW (250 degrees) at 10 MPH (9 knots; 4.7 m/s)
Visibility: 10 or more miles (16+ km)
Ceiling: at least 12,000 feet AGL
Clouds: sky clear below 12,000 feet AGL
Weather: automated observation with no human augmentation;
there may or may not be significant weather present at this time

METAR text: KMNH 241015Z AUTO 27009KT 10SM CLR M10/M16 A2985 RMK AO2
Conditions at: KMNH (MONUMENT/ELBERT , CO, US) observed 1015 UTC 24 November 2014
Temperature: -10.0°C (14°F)
Dewpoint: -16.0°C (3°F) [RH = 61%]
Pressure (altimeter): 29.85 inches Hg (1010.9 mb)
Winds: from the W (270 degrees) at 10 MPH (9 knots; 4.7 m/s)
Visibility: 10 or more miles (16+ km)
Ceiling: at least 12,000 feet AGL
Clouds: sky clear below 12,000 feet AGL
Weather: automated observation with no human augmentation;
there may or may not be significant weather present at this time

METAR text: KMNH 240955Z AUTO 25010KT 10SM CLR M11/M16 A2985 RMK AO2
Conditions at: KMNH (MONUMENT/ELBERT , CO, US) observed 0955 UTC 24 November 2014
Temperature: -11.0°C (12°F)
Dewpoint: -16.0°C (3°F) [RH = 67%]
Pressure (altimeter): 29.85 inches Hg (1010.9 mb)
Winds: from the WSW (250 degrees) at 12 MPH (10 knots; 5.2 m/s)
Visibility: 10 or more miles (16+ km)
Ceiling: at least 12,000 feet AGL
Clouds: sky clear below 12,000 feet AGL
Weather: automated observation with no human augmentation;
there may or may not be significant weather present at this time

METAR text: KMNH 240934Z AUTO 26008KT 10SM CLR M11/M16 A2986 RMK AO2
Conditions at: KMNH (MONUMENT/ELBERT , CO, US) observed 0934 UTC 24 November 2014
Temperature: -11.0°C (12°F)
Dewpoint: -16.0°C (3°F) [RH = 67%]
Pressure (altimeter): 29.86 inches Hg (1011.3 mb)
Winds: from the W (260 degrees) at 9 MPH (8 knots; 4.2 m/s)
Visibility: 10 or more miles (16+ km)
Ceiling: at least 12,000 feet AGL
Clouds: sky clear below 12,000 feet AGL
Weather: automated observation with no human augmentation;
there may or may not be significant weather present at this time

METAR text: KMNH 240915Z AUTO 25007KT 10SM CLR M13/M18 A2986 RMK AO2
Conditions at: KMNH (MONUMENT/ELBERT , CO, US) observed 0915 UTC 24 November 2014
Temperature: -13.0°C (9°F)
Dewpoint: -18.0°C (-0°F) [RH = 66%]
Pressure (altimeter): 29.86 inches Hg (1011.3 mb)
Winds: from the WSW (250 degrees) at 8 MPH (7 knots; 3.6 m/s)
Visibility: 10 or more miles (16+ km)
Ceiling: at least 12,000 feet AGL
Clouds: sky clear below 12,000 feet AGL
Weather: automated observation with no human augmentation;
there may or may not be significant weather present at this time

METAR text: KMNH 240855Z AUTO 26008KT 10SM CLR M13/M18 A2985 RMK AO2
Conditions at: KMNH (MONUMENT/ELBERT , CO, US) observed 0855 UTC 24 November 2014
Temperature: -13.0°C (9°F)
Dewpoint: -18.0°C (-0°F) [RH = 66%]
Pressure (altimeter): 29.85 inches Hg (1010.9 mb)
Winds: from the W (260 degrees) at 9 MPH (8 knots; 4.2 m/s)
Visibility: 10 or more miles (16+ km)
Ceiling: at least 12,000 feet AGL
Clouds: sky clear below 12,000 feet AGL
Weather: automated observation with no human augmentation;
there may or may not be significant weather present at this time

METAR text: KMNH 240835Z AUTO 24007KT 10SM CLR M12/M17 A2984 RMK AO2
Conditions at: KMNH (MONUMENT/ELBERT , CO, US) observed 0835 UTC 24 November 2014
Temperature: -12.0°C (10°F)
Dewpoint: -17.0°C (1°F) [RH = 66%]
Pressure (altimeter): 29.84 inches Hg (1010.6 mb)
Winds: from the WSW (240 degrees) at 8 MPH (7 knots; 3.6 m/s)
Visibility: 10 or more miles (16+ km)
Ceiling: at least 12,000 feet AGL
Clouds: sky clear below 12,000 feet AGL
Weather: automated observation with no human augmentation;
there may or may not be significant weather present at this time

METAR text: KMNH 240815Z AUTO 26008KT 10SM CLR M13/M17 A2984 RMK AO2
Conditions at: KMNH (MONUMENT/ELBERT , CO, US) observed 0815 UTC 24 November 2014
Temperature: -13.0°C (9°F)
Dewpoint: -17.0°C (1°F) [RH = 72%]
Pressure (altimeter): 29.84 inches Hg (1010.6 mb)
Winds: from the W (260 degrees) at 9 MPH (8 knots; 4.2 m/s)
Visibility: 10 or more miles (16+ km)
Ceiling: at least 12,000 feet AGL
Clouds: sky clear below 12,000 feet AGL
Weather: automated observation with no human augmentation;
there may or may not be significant weather present at this time

METAR text: KMNH 240755Z AUTO 28006KT 10SM CLR M12/M17 A2985 RMK AO2
Conditions at: KMNH (MONUMENT/ELBERT , CO, US) observed 0755 UTC 24 November 2014
Temperature: -12.0°C (10°F)
Dewpoint: -17.0°C (1°F) [RH = 66%]
Pressure (altimeter): 29.85 inches Hg (1010.9 mb)
Winds: from the W (280 degrees) at 7 MPH (6 knots; 3.1 m/s)
Visibility: 10 or more miles (16+ km)
Ceiling: at least 12,000 feet AGL
Clouds: sky clear below 12,000 feet AGL
Weather: automated observation with no human augmentation;
there may or may not be significant weather present at this time

METAR text: KMNH 240735Z AUTO 28008KT 10SM CLR M10/M16 A2985 RMK AO2
Conditions at: KMNH (MONUMENT/ELBERT , CO, US) observed 0735 UTC 24 November 2014
Temperature: -10.0°C (14°F)
Dewpoint: -16.0°C (3°F) [RH = 61%]
Pressure (altimeter): 29.85 inches Hg (1010.9 mb)
Winds: from the W (280 degrees) at 9 MPH (8 knots; 4.2 m/s)
Visibility: 10 or more miles (16+ km)
Ceiling: at least 12,000 feet AGL
Clouds: sky clear below 12,000 feet AGL
Weather: automated observation with no human augmentation;
there may or may not be significant weather present at this time

METAR text: KMNH 240715Z AUTO 27006KT 10SM CLR M12/M17 A2986 RMK AO2
Conditions at: KMNH (MONUMENT/ELBERT , CO, US) observed 0715 UTC 24 November 2014
Temperature: -12.0°C (10°F)
Dewpoint: -17.0°C (1°F) [RH = 66%]
Pressure (altimeter): 29.86 inches Hg (1011.3 mb)
Winds: from the W (270 degrees) at 7 MPH (6 knots; 3.1 m/s)
Visibility: 10 or more miles (16+ km)
Ceiling: at least 12,000 feet AGL
Clouds: sky clear below 12,000 feet AGL
Weather: automated observation with no human augmentation;
there may or may not be significant weather present at this time

METAR text: KMNH 240655Z AUTO 27008KT 10SM CLR M12/M16 A2987 RMK AO2
Conditions at: KMNH (MONUMENT/ELBERT , CO, US) observed 0655 UTC 24 November 2014
Temperature: -12.0°C (10°F)
Dewpoint: -16.0°C (3°F) [RH = 72%]
Pressure (altimeter): 29.87 inches Hg (1011.6 mb)
Winds: from the W (270 degrees) at 9 MPH (8 knots; 4.2 m/s)
Visibility: 10 or more miles (16+ km)
Ceiling: at least 12,000 feet AGL
Clouds: sky clear below 12,000 feet AGL
Weather: automated observation with no human augmentation;
there may or may not be significant weather present at this time

METAR text: KMNH 240635Z AUTO 25008KT 10SM CLR M12/M16 A2987 RMK AO2
Conditions at: KMNH (MONUMENT/ELBERT , CO, US) observed 0635 UTC 24 November 2014
Temperature: -12.0°C (10°F)
Dewpoint: -16.0°C (3°F) [RH = 72%]
Pressure (altimeter): 29.87 inches Hg (1011.6 mb)
Winds: from the WSW (250 degrees) at 9 MPH (8 knots; 4.2 m/s)
Visibility: 10 or more miles (16+ km)
Ceiling: at least 12,000 feet AGL
Clouds: sky clear below 12,000 feet AGL
Weather: automated observation with no human augmentation;
there may or may not be significant weather present at this time

METAR text: KMNH 240615Z AUTO 27009KT 10SM CLR M10/M15 A2986 RMK AO2
Conditions at: KMNH (MONUMENT/ELBERT , CO, US) observed 0615 UTC 24 November 2014
Temperature: -10.0°C (14°F)
Dewpoint: -15.0°C (5°F) [RH = 67%]
Pressure (altimeter): 29.86 inches Hg (1011.3 mb)
Winds: from the W (270 degrees) at 10 MPH (9 knots; 4.7 m/s)
Visibility: 10 or more miles (16+ km)
Ceiling: at least 12,000 feet AGL
Clouds: sky clear below 12,000 feet AGL
Weather: automated observation with no human augmentation;
there may or may not be significant weather present at this time

METAR text: KMNH 240555Z AUTO 28008KT 10SM CLR M11/M15 A2986 RMK AO2
Conditions at: KMNH (MONUMENT/ELBERT , CO, US) observed 0555 UTC 24 November 2014
Temperature: -11.0°C (12°F)
Dewpoint: -15.0°C (5°F) [RH = 72%]
Pressure (altimeter): 29.86 inches Hg (1011.3 mb)
Winds: from the W (280 degrees) at 9 MPH (8 knots; 4.2 m/s)
Visibility: 10 or more miles (16+ km)
Ceiling: at least 12,000 feet AGL
Clouds: sky clear below 12,000 feet AGL
Weather: automated observation with no human augmentation;
there may or may not be significant weather present at this time

METAR text: KMNH 240535Z AUTO 27008KT 10SM CLR M12/M15 A2986 RMK AO2
Conditions at: KMNH (MONUMENT/ELBERT , CO, US) observed 0535 UTC 24 November 2014
Temperature: -12.0°C (10°F)
Dewpoint: -15.0°C (5°F) [RH = 78%]
Pressure (altimeter): 29.86 inches Hg (1011.3 mb)
Winds: from the W (270 degrees) at 9 MPH (8 knots; 4.2 m/s)
Visibility: 10 or more miles (16+ km)
Ceiling: at least 12,000 feet AGL
Clouds: sky clear below 12,000 feet AGL
Weather: automated observation with no human augmentation;
there may or may not be significant weather present at this time

METAR text: KMNH 240515Z AUTO 26007KT 10SM CLR M11/M15 A2987 RMK AO2
Conditions at: KMNH (MONUMENT/ELBERT , CO, US) observed 0515 UTC 24 November 2014
Temperature: -11.0°C (12°F)
Dewpoint: -15.0°C (5°F) [RH = 72%]
Pressure (altimeter): 29.87 inches Hg (1011.6 mb)
Winds: from the W (260 degrees) at 8 MPH (7 knots; 3.6 m/s)
Visibility: 10 or more miles (16+ km)
Ceiling: at least 12,000 feet AGL
Clouds: sky clear below 12,000 feet AGL
Weather: automated observation with no human augmentation;
there may or may not be significant weather present at this time

METAR text: KMNH 240454Z AUTO 25008KT 10SM CLR M12/M14 A2987 RMK AO2
Conditions at: KMNH (MONUMENT/ELBERT , CO, US) observed 0454 UTC 24 November 2014
Temperature: -12.0°C (10°F)
Dewpoint: -14.0°C (7°F) [RH = 85%]
Pressure (altimeter): 29.87 inches Hg (1011.6 mb)
Winds: from the WSW (250 degrees) at 9 MPH (8 knots; 4.2 m/s)
Visibility: 10 or more miles (16+ km)
Ceiling: at least 12,000 feet AGL
Clouds: sky clear below 12,000 feet AGL
Weather: automated observation with no human augmentation;
there may or may not be significant weather present at this time

METAR text: KMNH 240434Z AUTO 25006KT 10SM CLR M11/M14 A2987 RMK AO2
Conditions at: KMNH (MONUMENT/ELBERT , CO, US) observed 0434 UTC 24 November 2014
Temperature: -11.0°C (12°F)
Dewpoint: -14.0°C (7°F) [RH = 78%]
Pressure (altimeter): 29.87 inches Hg (1011.6 mb)
Winds: from the WSW (250 degrees) at 7 MPH (6 knots; 3.1 m/s)
Visibility: 10 or more miles (16+ km)
Ceiling: at least 12,000 feet AGL
Clouds: sky clear below 12,000 feet AGL
Weather: automated observation with no human augmentation;
there may or may not be significant weather present at this time

METAR text: KMNH 240414Z AUTO 25007KT 10SM CLR M10/M13 A2987 RMK AO2
Conditions at: KMNH (MONUMENT/ELBERT , CO, US) observed 0414 UTC 24 November 2014
Temperature: -10.0°C (14°F)
Dewpoint: -13.0°C (9°F) [RH = 79%]
Pressure (altimeter): 29.87 inches Hg (1011.6 mb)
Winds: from the WSW (250 degrees) at 8 MPH (7 knots; 3.6 m/s)
Visibility: 10 or more miles (16+ km)
Ceiling: at least 12,000 feet AGL
Clouds: sky clear below 12,000 feet AGL
Weather: automated observation with no human augmentation;
there may or may not be significant weather present at this time

METAR text: KMNH 240355Z AUTO 25007KT 10SM CLR M10/M11 A2987 RMK AO2
Conditions at: KMNH (MONUMENT/ELBERT , CO, US) observed 0355 UTC 24 November 2014
Temperature: -10.0°C (14°F)
Dewpoint: -11.0°C (12°F) [RH = 92%]
Pressure (altimeter): 29.87 inches Hg (1011.6 mb)
Winds: from the WSW (250 degrees) at 8 MPH (7 knots; 3.6 m/s)
Visibility: 10 or more miles (16+ km)
Ceiling: at least 12,000 feet AGL
Clouds: sky clear below 12,000 feet AGL
Weather: automated observation with no human augmentation;
there may or may not be significant weather present at this time

METAR text: KMNH 240335Z AUTO 27007KT 10SM CLR M09/M11 A2987 RMK AO2
Conditions at: KMNH (MONUMENT/ELBERT , CO, US) observed 0335 UTC 24 November 2014
Temperature: -9.0°C (16°F)
Dewpoint: -11.0°C (12°F) [RH = 85%]
Pressure (altimeter): 29.87 inches Hg (1011.6 mb)
Winds: from the W (270 degrees) at 8 MPH (7 knots; 3.6 m/s)
Visibility: 10 or more miles (16+ km)
Ceiling: at least 12,000 feet AGL
Clouds: sky clear below 12,000 feet AGL
Weather: automated observation with no human augmentation;
there may or may not be significant weather present at this time

METAR text: KMNH 240315Z AUTO 30010G17KT 10SM CLR M07/M09 A2987 RMK AO2
Conditions at: KMNH (MONUMENT/ELBERT , CO, US) observed 0315 UTC 24 November 2014
Temperature: -7.0°C (19°F)
Dewpoint: -9.0°C (16°F) [RH = 86%]
Pressure (altimeter): 29.87 inches Hg (1011.6 mb)
Winds: from the WNW (300 degrees) at 12 MPH (10 knots; 5.2 m/sgusting to 20 MPH (17 knots; 8.8 m/s)
Visibility: 10 or more miles (16+ km)
Ceiling: at least 12,000 feet AGL
Clouds: sky clear below 12,000 feet AGL
Weather: automated observation with no human augmentation;
there may or may not be significant weather present at this time

METAR text: KMNH 240254Z AUTO 29009KT 10SM CLR M08/M09 A2987 RMK AO2
Conditions at: KMNH (MONUMENT/ELBERT , CO, US) observed 0254 UTC 24 November 2014
Temperature: -8.0°C (18°F)
Dewpoint: -9.0°C (16°F) [RH = 92%]
Pressure (altimeter): 29.87 inches Hg (1011.6 mb)
Winds: from the WNW (290 degrees) at 10 MPH (9 knots; 4.7 m/s)
Visibility: 10 or more miles (16+ km)
Ceiling: at least 12,000 feet AGL
Clouds: sky clear below 12,000 feet AGL
Weather: automated observation with no human augmentation;
there may or may not be significant weather present at this time

METAR text: KMNH 240234Z AUTO 28006KT 10SM CLR M10/M11 A2988 RMK AO2
Conditions at: KMNH (MONUMENT/ELBERT , CO, US) observed 0234 UTC 24 November 2014
Temperature: -10.0°C (14°F)
Dewpoint: -11.0°C (12°F) [RH = 92%]
Pressure (altimeter): 29.88 inches Hg (1011.9 mb)
Winds: from the W (280 degrees) at 7 MPH (6 knots; 3.1 m/s)
Visibility: 10 or more miles (16+ km)
Ceiling: at least 12,000 feet AGL
Clouds: sky clear below 12,000 feet AGL
Weather: automated observation with no human augmentation;
there may or may not be significant weather present at this time

METAR text: KMNH 240215Z AUTO 24006KT 10SM CLR M08/M09 A2988 RMK AO2
Conditions at: KMNH (MONUMENT/ELBERT , CO, US) observed 0215 UTC 24 November 2014
Temperature: -8.0°C (18°F)
Dewpoint: -9.0°C (16°F) [RH = 92%]
Pressure (altimeter): 29.88 inches Hg (1011.9 mb)
Winds: from the WSW (240 degrees) at 7 MPH (6 knots; 3.1 m/s)
Visibility: 10 or more miles (16+ km)
Ceiling: at least 12,000 feet AGL
Clouds: sky clear below 12,000 feet AGL
Weather: automated observation with no human augmentation;
there may or may not be significant weather present at this time

METAR text: KMNH 240155Z AUTO 25005KT 10SM CLR M10/M11 A2988 RMK AO2
Conditions at: KMNH (MONUMENT/ELBERT , CO, US) observed 0155 UTC 24 November 2014
Temperature: -10.0°C (14°F)
Dewpoint: -11.0°C (12°F) [RH = 92%]
Pressure (altimeter): 29.88 inches Hg (1011.9 mb)
Winds: from the WSW (250 degrees) at 6 MPH (5 knots; 2.6 m/s)
Visibility: 10 or more miles (16+ km)
Ceiling: at least 12,000 feet AGL
Clouds: sky clear below 12,000 feet AGL
Weather: automated observation with no human augmentation;
there may or may not be significant weather present at this time

METAR text: KMNH 240135Z AUTO 33004KT 10SM CLR M07/M08 A2987 RMK AO2
Conditions at: KMNH (MONUMENT/ELBERT , CO, US) observed 0135 UTC 24 November 2014
Temperature: -7.0°C (19°F)
Dewpoint: -8.0°C (18°F) [RH = 93%]
Pressure (altimeter): 29.87 inches Hg (1011.6 mb)
Winds: from the NNW (330 degrees) at 5 MPH (4 knots; 2.1 m/s)
Visibility: 10 or more miles (16+ km)
Ceiling: at least 12,000 feet AGL
Clouds: sky clear below 12,000 feet AGL
Weather: automated observation with no human augmentation;
there may or may not be significant weather present at this time

METAR text: KMNH 240115Z AUTO 01005KT 10SM SCT007 SCT010 SCT024 M06/M07 A2987 RMK AO2
Conditions at: KMNH (MONUMENT/ELBERT , CO, US) observed 0115 UTC 24 November 2014
Temperature: -6.0°C (21°F)
Dewpoint: -7.0°C (19°F) [RH = 93%]
Pressure (altimeter): 29.87 inches Hg (1011.6 mb)
Winds: from the N (10 degrees) at 6 MPH (5 knots; 2.6 m/s)
Visibility: 10 or more miles (16+ km)
Ceiling: at least 12,000 feet AGL
Clouds: scattered clouds at 700 feet AGL
scattered clouds at 1000 feet AGL
scattered clouds at 2400 feet AGL
Weather: automated observation with no human augmentation;
there may or may not be significant weather present at this time

METAR text: KMNH 240055Z AUTO 01007KT 4SM -SN SCT007 BKN010 OVC029 M05/M06 A2987 RMK AO2
Conditions at: KMNH (MONUMENT/ELBERT , CO, US) observed 0055 UTC 24 November 2014
Temperature: -5.0°C (23°F)
Dewpoint: -6.0°C (21°F) [RH = 93%]
Pressure (altimeter): 29.87 inches Hg (1011.6 mb)
Winds: from the N (10 degrees) at 8 MPH (7 knots; 3.6 m/s)
Visibility: 4 miles (6 km)
Ceiling: 1000 feet AGL
Clouds: scattered clouds at 700 feet AGL
broken clouds at 1000 feet AGL
overcast cloud deck at 2900 feet AGL
Weather: -SN  (light snow)

METAR text: KMNH 240035Z AUTO 36009KT 10SM BKN007 BKN013 OVC037 M05/M06 A2987 RMK AO2
Conditions at: KMNH (MONUMENT/ELBERT , CO, US) observed 0035 UTC 24 November 2014
Temperature: -5.0°C (23°F)
Dewpoint: -6.0°C (21°F) [RH = 93%]
Pressure (altimeter): 29.87 inches Hg (1011.6 mb)
Winds: from the N (360 degrees) at 10 MPH (9 knots; 4.7 m/s)
Visibility: 10 or more miles (16+ km)
Ceiling: 700 feet AGL
Clouds: broken clouds at 700 feet AGL
broken clouds at 1300 feet AGL
overcast cloud deck at 3700 feet AGL
Weather: automated observation with no human augmentation;
there may or may not be significant weather present at this time

METAR text: KMNH 240015Z AUTO 01011G17KT 3SM -SN SCT003 BKN009 OVC027 M05/M05 A2985 RMK AO2
Conditions at: KMNH (MONUMENT/ELBERT , CO, US) observed 0015 UTC 24 November 2014
Temperature: -5.0°C (23°F)
Dewpoint: -5.0°C (23°F) [RH = 100%]
Pressure (altimeter): 29.85 inches Hg (1010.9 mb)
Winds: from the N (10 degrees) at 13 MPH (11 knots; 5.7 m/sgusting to 20 MPH (17 knots; 8.8 m/s)
Visibility: 3 miles (5 km)
Ceiling: 900 feet AGL
Clouds: scattered clouds at 300 feet AGL
broken clouds at 900 feet AGL
overcast cloud deck at 2700 feet AGL
Weather: -SN  (light snow)

METAR text: KMNH 232355Z AUTO 01012G21KT 1 1/2SM -SN BKN003 BKN007 OVC020 M05/M05 A2984 RMK AO2
Conditions at: KMNH (MONUMENT/ELBERT , CO, US) observed 2355 UTC 23 November 2014
Temperature: -5.0°C (23°F)
Dewpoint: -5.0°C (23°F) [RH = 100%]
Pressure (altimeter): 29.84 inches Hg (1010.6 mb)
Winds: from the N (10 degrees) at 14 MPH (12 knots; 6.2 m/sgusting to 24 MPH (21 knots; 10.9 m/s)
Visibility: 1.50 miles (2.41 km)
Ceiling: 300 feet AGL
Clouds: broken clouds at 300 feet AGL
broken clouds at 700 feet AGL
overcast cloud deck at 2000 feet AGL
Weather: -SN  (light snow)

METAR text: KMNH 232335Z AUTO 36012G20KT 1SM SN OVC005 M04/M05 A2984 RMK AO2
Conditions at: KMNH (MONUMENT/ELBERT , CO, US) observed 2335 UTC 23 November 2014
Temperature: -4.0°C (25°F)
Dewpoint: -5.0°C (23°F) [RH = 93%]
Pressure (altimeter): 29.84 inches Hg (1010.6 mb)
Winds: from the N (360 degrees) at 14 MPH (12 knots; 6.2 m/sgusting to 23 MPH (20 knots; 10.4 m/s)
Visibility: 1.00 miles (1.61 km)
Ceiling: 500 feet AGL
Clouds: overcast cloud deck at 500 feet AGL
Weather: SN  (snow)

METAR text: KMNH 232315Z AUTO 36013G17KT 2 1/2SM -SN SCT007 BKN012 OVC036 M03/M05 A2983 RMK AO2
Conditions at: KMNH (MONUMENT/ELBERT , CO, US) observed 2315 UTC 23 November 2014
Temperature: -3.0°C (27°F)
Dewpoint: -5.0°C (23°F) [RH = 86%]
Pressure (altimeter): 29.83 inches Hg (1010.2 mb)
Winds: from the N (360 degrees) at 15 MPH (13 knots; 6.8 m/sgusting to 20 MPH (17 knots; 8.8 m/s)
Visibility: 2.50 miles (4.02 km)
Ceiling: 1200 feet AGL
Clouds: scattered clouds at 700 feet AGL
broken clouds at 1200 feet AGL
overcast cloud deck at 3600 feet AGL
Weather: -SN  (light snow)

METAR text: KMNH 232255Z AUTO 01012G15KT 7SM -SN SCT010 BKN042 OVC050 M03/M05 A2981 RMK AO2
Conditions at: KMNH (MONUMENT/ELBERT , CO, US) observed 2255 UTC 23 November 2014
Temperature: -3.0°C (27°F)
Dewpoint: -5.0°C (23°F) [RH = 86%]
Pressure (altimeter): 29.81 inches Hg (1009.6 mb)
Winds: from the N (10 degrees) at 14 MPH (12 knots; 6.2 m/sgusting to 17 MPH (15 knots; 7.8 m/s)
Visibility: 7 miles (11 km)
Ceiling: 4200 feet AGL
Clouds: scattered clouds at 1000 feet AGL
broken clouds at 4200 feet AGL
overcast cloud deck at 5000 feet AGL
Weather: -SN  (light snow)

METAR text: KMNH 232235Z AUTO 01011G20KT 10SM SCT049 BKN055 BKN095 M03/M06 A2980 RMK AO2
Conditions at: KMNH (MONUMENT/ELBERT , CO, US) observed 2235 UTC 23 November 2014
Temperature: -3.0°C (27°F)
Dewpoint: -6.0°C (21°F) [RH = 80%]
Pressure (altimeter): 29.80 inches Hg (1009.2 mb)
Winds: from the N (10 degrees) at 13 MPH (11 knots; 5.7 m/sgusting to 23 MPH (20 knots; 10.4 m/s)
Visibility: 10 or more miles (16+ km)
Ceiling: 5500 feet AGL
Clouds: scattered clouds at 4900 feet AGL
broken clouds at 5500 feet AGL
broken clouds at 9500 feet AGL
Weather: automated observation with no human augmentation;
there may or may not be significant weather present at this time

METAR text: KMNH 232215Z AUTO 01014G22KT 10SM SCT029 BKN036 SCT046 M01/M08 A2978 RMK AO2
Conditions at: KMNH (MONUMENT/ELBERT , CO, US) observed 2215 UTC 23 November 2014
Temperature: -1.0°C (30°F)
Dewpoint: -8.0°C (18°F) [RH = 59%]
Pressure (altimeter): 29.78 inches Hg (1008.5 mb)
Winds: from the N (10 degrees) at 16 MPH (14 knots; 7.3 m/sgusting to 25 MPH (22 knots; 11.4 m/s)
Visibility: 10 or more miles (16+ km)
Ceiling: 3600 feet AGL
Clouds: scattered clouds at 2900 feet AGL
broken clouds at 3600 feet AGL
scattered clouds at 4600 feet AGL
Weather: automated observation with no human augmentation;
there may or may not be significant weather present at this time

METAR text: KMNH 232155Z AUTO 01015G19KT 10SM SCT027 BKN041 OVC048 M01/M09 A2977 RMK AO2
Conditions at: KMNH (MONUMENT/ELBERT , CO, US) observed 2155 UTC 23 November 2014
Temperature: -1.0°C (30°F)
Dewpoint: -9.0°C (16°F) [RH = 55%]
Pressure (altimeter): 29.77 inches Hg (1008.2 mb)
Winds: from the N (10 degrees) at 17 MPH (15 knots; 7.8 m/sgusting to 22 MPH (19 knots; 9.9 m/s)
Visibility: 10 or more miles (16+ km)
Ceiling: 4100 feet AGL
Clouds: scattered clouds at 2700 feet AGL
broken clouds at 4100 feet AGL
overcast cloud deck at 4800 feet AGL
Weather: automated observation with no human augmentation;
there may or may not be significant weather present at this time

METAR text: KMNH 232135Z AUTO 36013G17KT 10SM SCT042 BKN050 OVC060 00/M10 A2976 RMK AO2
Conditions at: KMNH (MONUMENT/ELBERT , CO, US) observed 2135 UTC 23 November 2014
Temperature: 0.0°C (32°F)
Dewpoint: -10.0°C (14°F) [RH = 47%]
Pressure (altimeter): 29.76 inches Hg (1007.9 mb)
Winds: from the N (360 degrees) at 15 MPH (13 knots; 6.8 m/sgusting to 20 MPH (17 knots; 8.8 m/s)
Visibility: 10 or more miles (16+ km)
Ceiling: 5000 feet AGL
Clouds: scattered clouds at 4200 feet AGL
broken clouds at 5000 feet AGL
overcast cloud deck at 6000 feet AGL
Weather: automated observation with no human augmentation;
there may or may not be significant weather present at this time

METAR text: KMNH 232114Z AUTO 03014G18KT 10SM OVC050 00/M09 A2975 RMK AO2
Conditions at: KMNH (MONUMENT/ELBERT , CO, US) observed 2114 UTC 23 November 2014
Temperature: 0.0°C (32°F)
Dewpoint: -9.0°C (16°F) [RH = 51%]
Pressure (altimeter): 29.75 inches Hg (1007.5 mb)
Winds: from the NNE (30 degrees) at 16 MPH (14 knots; 7.3 m/sgusting to 21 MPH (18 knots; 9.4 m/s)
Visibility: 10 or more miles (16+ km)
Ceiling: 5000 feet AGL
Clouds: overcast cloud deck at 5000 feet AGL
Weather: automated observation with no human augmentation;
there may or may not be significant weather present at this time

METAR text: KMNH 232055Z AUTO 35013G17KT 10SM SCT042 OVC048 00/M09 A2975 RMK AO2
Conditions at: KMNH (MONUMENT/ELBERT , CO, US) observed 2055 UTC 23 November 2014
Temperature: 0.0°C (32°F)
Dewpoint: -9.0°C (16°F) [RH = 51%]
Pressure (altimeter): 29.75 inches Hg (1007.5 mb)
Winds: from the N (350 degrees) at 15 MPH (13 knots; 6.8 m/sgusting to 20 MPH (17 knots; 8.8 m/s)
Visibility: 10 or more miles (16+ km)
Ceiling: 4800 feet AGL
Clouds: scattered clouds at 4200 feet AGL
overcast cloud deck at 4800 feet AGL
Weather: automated observation with no human augmentation;
there may or may not be significant weather present at this time

METAR text: KMNH 232035Z AUTO 35011G16KT 10SM SCT045 BKN050 OVC075 00/M09 A2975 RMK AO2
Conditions at: KMNH (MONUMENT/ELBERT , CO, US) observed 2035 UTC 23 November 2014
Temperature: 0.0°C (32°F)
Dewpoint: -9.0°C (16°F) [RH = 51%]
Pressure (altimeter): 29.75 inches Hg (1007.5 mb)
Winds: from the N (350 degrees) at 13 MPH (11 knots; 5.7 m/sgusting to 18 MPH (16 knots; 8.3 m/s)
Visibility: 10 or more miles (16+ km)
Ceiling: 5000 feet AGL
Clouds: scattered clouds at 4500 feet AGL
broken clouds at 5000 feet AGL
overcast cloud deck at 7500 feet AGL
Weather: automated observation with no human augmentation;
there may or may not be significant weather present at this time

METAR text: KMNH 232015Z AUTO 36005KT 10SM SCT055 SCT075 BKN080 00/M08 A2974 RMK AO2
Conditions at: KMNH (MONUMENT/ELBERT , CO, US) observed 2015 UTC 23 November 2014
Temperature: 0.0°C (32°F)
Dewpoint: -8.0°C (18°F) [RH = 55%]
Pressure (altimeter): 29.74 inches Hg (1007.2 mb)
Winds: from the N (360 degrees) at 6 MPH (5 knots; 2.6 m/s)
Visibility: 10 or more miles (16+ km)
Ceiling: 8000 feet AGL
Clouds: scattered clouds at 5500 feet AGL
scattered clouds at 7500 feet AGL
broken clouds at 8000 feet AGL
Weather: automated observation with no human augmentation;
there may or may not be significant weather present at this time

METAR text: KMNH 231955Z AUTO 36005KT 10SM SCT055 00/M07 A2975 RMK AO2 P0001
Conditions at: KMNH (MONUMENT/ELBERT , CO, US) observed 1955 UTC 23 November 2014
Temperature: 0.0°C (32°F)
Dewpoint: -7.0°C (19°F) [RH = 59%]
Pressure (altimeter): 29.75 inches Hg (1007.5 mb)
Winds: from the N (360 degrees) at 6 MPH (5 knots; 2.6 m/s)
Visibility: 10 or more miles (16+ km)
Ceiling: at least 12,000 feet AGL
Clouds: scattered clouds at 5500 feet AGL
Weather: automated observation with no human augmentation;
there may or may not be significant weather present at this time

METAR text: KMNH 231935Z AUTO 01006KT 10SM CLR 00/M07 A2976 RMK AO2 P0001
Conditions at: KMNH (MONUMENT/ELBERT , CO, US) observed 1935 UTC 23 November 2014
Temperature: 0.0°C (32°F)
Dewpoint: -7.0°C (19°F) [RH = 59%]
Pressure (altimeter): 29.76 inches Hg (1007.9 mb)
Winds: from the N (10 degrees) at 7 MPH (6 knots; 3.1 m/s)
Visibility: 10 or more miles (16+ km)
Ceiling: at least 12,000 feet AGL
Clouds: sky clear below 12,000 feet AGL
Weather: automated observation with no human augmentation;
there may or may not be significant weather present at this time

METAR text: KMNH 231915Z AUTO 02006KT 10SM CLR 00/M07 A2976 RMK AO2
Conditions at: KMNH (MONUMENT/ELBERT , CO, US) observed 1915 UTC 23 November 2014
Temperature: 0.0°C (32°F)
Dewpoint: -7.0°C (19°F) [RH = 59%]
Pressure (altimeter): 29.76 inches Hg (1007.9 mb)
Winds: from the NNE (20 degrees) at 7 MPH (6 knots; 3.1 m/s)
Visibility: 10 or more miles (16+ km)
Ceiling: at least 12,000 feet AGL
Clouds: sky clear below 12,000 feet AGL
Weather: automated observation with no human augmentation;
there may or may not be significant weather present at this time

METAR text: KMNH 231855Z AUTO 36007KT 10SM CLR M01/M07 A2976 RMK AO2
Conditions at: KMNH (MONUMENT/ELBERT , CO, US) observed 1855 UTC 23 November 2014
Temperature: -1.0°C (30°F)
Dewpoint: -7.0°C (19°F) [RH = 64%]
Pressure (altimeter): 29.76 inches Hg (1007.9 mb)
Winds: from the N (360 degrees) at 8 MPH (7 knots; 3.6 m/s)
Visibility: 10 or more miles (16+ km)
Ceiling: at least 12,000 feet AGL
Clouds: sky clear below 12,000 feet AGL
Weather: automated observation with no human augmentation;
there may or may not be significant weather present at this time

METAR text: KMNH 231835Z AUTO 36010KT 10SM CLR M01/M07 A2977 RMK AO2
Conditions at: KMNH (MONUMENT/ELBERT , CO, US) observed 1835 UTC 23 November 2014
Temperature: -1.0°C (30°F)
Dewpoint: -7.0°C (19°F) [RH = 64%]
Pressure (altimeter): 29.77 inches Hg (1008.2 mb)
Winds: from the N (360 degrees) at 12 MPH (10 knots; 5.2 m/s)
Visibility: 10 or more miles (16+ km)
Ceiling: at least 12,000 feet AGL
Clouds: sky clear below 12,000 feet AGL
Weather: automated observation with no human augmentation;
there may or may not be significant weather present at this time

METAR text: KMNH 231815Z AUTO 01010KT 10SM CLR M01/M08 A2977 RMK AO2
Conditions at: KMNH (MONUMENT/ELBERT , CO, US) observed 1815 UTC 23 November 2014
Temperature: -1.0°C (30°F)
Dewpoint: -8.0°C (18°F) [RH = 59%]
Pressure (altimeter): 29.77 inches Hg (1008.2 mb)
Winds: from the N (10 degrees) at 12 MPH (10 knots; 5.2 m/s)
Visibility: 10 or more miles (16+ km)
Ceiling: at least 12,000 feet AGL
Clouds: sky clear below 12,000 feet AGL
Weather: automated observation with no human augmentation;
there may or may not be significant weather present at this time

METAR text: KMNH 231755Z AUTO 35013KT 10SM SCT050 M01/M07 A2977 RMK AO2
Conditions at: KMNH (MONUMENT/ELBERT , CO, US) observed 1755 UTC 23 November 2014
Temperature: -1.0°C (30°F)
Dewpoint: -7.0°C (19°F) [RH = 64%]
Pressure (altimeter): 29.77 inches Hg (1008.2 mb)
Winds: from the N (350 degrees) at 15 MPH (13 knots; 6.8 m/s)
Visibility: 10 or more miles (16+ km)
Ceiling: at least 12,000 feet AGL
Clouds: scattered clouds at 5000 feet AGL
Weather: automated observation with no human augmentation;
there may or may not be significant weather present at this time

METAR text: KMNH 231735Z AUTO 34008KT 10SM SCT050 M01/M06 A2977 RMK AO2
Conditions at: KMNH (MONUMENT/ELBERT , CO, US) observed 1735 UTC 23 November 2014
Temperature: -1.0°C (30°F)
Dewpoint: -6.0°C (21°F) [RH = 69%]
Pressure (altimeter): 29.77 inches Hg (1008.2 mb)
Winds: from the NNW (340 degrees) at 9 MPH (8 knots; 4.2 m/s)
Visibility: 10 or more miles (16+ km)
Ceiling: at least 12,000 feet AGL
Clouds: scattered clouds at 5000 feet AGL
Weather: automated observation with no human augmentation;
there may or may not be significant weather present at this time

METAR text: KMNH 231714Z AUTO 34009KT 10SM CLR M02/M06 A2977 RMK AO2
Conditions at: KMNH (MONUMENT/ELBERT , CO, US) observed 1714 UTC 23 November 2014
Temperature: -2.0°C (28°F)
Dewpoint: -6.0°C (21°F) [RH = 74%]
Pressure (altimeter): 29.77 inches Hg (1008.2 mb)
Winds: from the NNW (340 degrees) at 10 MPH (9 knots; 4.7 m/s)
Visibility: 10 or more miles (16+ km)
Ceiling: at least 12,000 feet AGL
Clouds: sky clear below 12,000 feet AGL
Weather: automated observation with no human augmentation;
there may or may not be significant weather present at this time

METAR text: KMNH 231655Z AUTO 36008KT 10SM BKN060 M02/M06 A2977 RMK AO2
Conditions at: KMNH (MONUMENT/ELBERT , CO, US) observed 1655 UTC 23 November 2014
Temperature: -2.0°C (28°F)
Dewpoint: -6.0°C (21°F) [RH = 74%]
Pressure (altimeter): 29.77 inches Hg (1008.2 mb)
Winds: from the N (360 degrees) at 9 MPH (8 knots; 4.2 m/s)
Visibility: 10 or more miles (16+ km)
Ceiling: 6000 feet AGL
Clouds: broken clouds at 6000 feet AGL
Weather: automated observation with no human augmentation;
there may or may not be significant weather present at this time

METAR text: KMNH 231635Z AUTO 35009KT 10SM OVC060 M02/M06 A2978 RMK AO2
Conditions at: KMNH (MONUMENT/ELBERT , CO, US) observed 1635 UTC 23 November 2014
Temperature: -2.0°C (28°F)
Dewpoint: -6.0°C (21°F) [RH = 74%]
Pressure (altimeter): 29.78 inches Hg (1008.5 mb)
Winds: from the N (350 degrees) at 10 MPH (9 knots; 4.7 m/s)
Visibility: 10 or more miles (16+ km)
Ceiling: 6000 feet AGL
Clouds: overcast cloud deck at 6000 feet AGL
Weather: automated observation with no human augmentation;
there may or may not be significant weather present at this time

METAR text: KMNH 231615Z AUTO 36010KT 10SM BKN060 M02/M06 A2977 RMK AO2
Conditions at: KMNH (MONUMENT/ELBERT , CO, US) observed 1615 UTC 23 November 2014
Temperature: -2.0°C (28°F)
Dewpoint: -6.0°C (21°F) [RH = 74%]
Pressure (altimeter): 29.77 inches Hg (1008.2 mb)
Winds: from the N (360 degrees) at 12 MPH (10 knots; 5.2 m/s)
Visibility: 10 or more miles (16+ km)
Ceiling: 6000 feet AGL
Clouds: broken clouds at 6000 feet AGL
Weather: automated observation with no human augmentation;
there may or may not be significant weather present at this time

METAR text: KMNH 231555Z AUTO 34008KT 10SM SCT020 SCT035 BKN085 M03/M05 A2977 RMK AO2
Conditions at: KMNH (MONUMENT/ELBERT , CO, US) observed 1555 UTC 23 November 2014
Temperature: -3.0°C (27°F)
Dewpoint: -5.0°C (23°F) [RH = 86%]
Pressure (altimeter): 29.77 inches Hg (1008.2 mb)
Winds: from the NNW (340 degrees) at 9 MPH (8 knots; 4.2 m/s)
Visibility: 10 or more miles (16+ km)
Ceiling: 8500 feet AGL
Clouds: scattered clouds at 2000 feet AGL
scattered clouds at 3500 feet AGL
broken clouds at 8500 feet AGL
Weather: automated observation with no human augmentation;
there may or may not be significant weather present at this time

METAR text: KMNH 231535Z AUTO 34006KT 5SM -SN SCT011 BKN022 OVC043 M03/M05 A2977 RMK AO2
Conditions at: KMNH (MONUMENT/ELBERT , CO, US) observed 1535 UTC 23 November 2014
Temperature: -3.0°C (27°F)
Dewpoint: -5.0°C (23°F) [RH = 86%]
Pressure (altimeter): 29.77 inches Hg (1008.2 mb)
Winds: from the NNW (340 degrees) at 7 MPH (6 knots; 3.1 m/s)
Visibility: 5 miles (8 km)
Ceiling: 2200 feet AGL
Clouds: scattered clouds at 1100 feet AGL
broken clouds at 2200 feet AGL
overcast cloud deck at 4300 feet AGL
Weather: -SN  (light snow)

METAR text: KMNH 231515Z AUTO 35012KT 7SM SN SCT009 BKN033 OVC039 M03/M06 A2976 RMK AO2
Conditions at: KMNH (MONUMENT/ELBERT , CO, US) observed 1515 UTC 23 November 2014
Temperature: -3.0°C (27°F)
Dewpoint: -6.0°C (21°F) [RH = 80%]
Pressure (altimeter): 29.76 inches Hg (1007.9 mb)
Winds: from the N (350 degrees) at 14 MPH (12 knots; 6.2 m/s)
Visibility: 7 miles (11 km)
Ceiling: 3300 feet AGL
Clouds: scattered clouds at 900 feet AGL
broken clouds at 3300 feet AGL
overcast cloud deck at 3900 feet AGL
Weather: SN  (snow)

METAR text: KMNH 231455Z AUTO 35007KT 10SM SCT032 BKN040 OVC046 M03/M05 A2975 RMK AO2
Conditions at: KMNH (MONUMENT/ELBERT , CO, US) observed 1455 UTC 23 November 2014
Temperature: -3.0°C (27°F)
Dewpoint: -5.0°C (23°F) [RH = 86%]
Pressure (altimeter): 29.75 inches Hg (1007.5 mb)
Winds: from the N (350 degrees) at 8 MPH (7 knots; 3.6 m/s)
Visibility: 10 or more miles (16+ km)
Ceiling: 4000 feet AGL
Clouds: scattered clouds at 3200 feet AGL
broken clouds at 4000 feet AGL
overcast cloud deck at 4600 feet AGL
Weather: automated observation with no human augmentation;
there may or may not be significant weather present at this time

METAR text: KMNH 231435Z AUTO 36006KT 10SM SCT028 BKN036 OVC041 M03/M05 A2974 RMK AO2
Conditions at: KMNH (MONUMENT/ELBERT , CO, US) observed 1435 UTC 23 November 2014
Temperature: -3.0°C (27°F)
Dewpoint: -5.0°C (23°F) [RH = 86%]
Pressure (altimeter): 29.74 inches Hg (1007.2 mb)
Winds: from the N (360 degrees) at 7 MPH (6 knots; 3.1 m/s)
Visibility: 10 or more miles (16+ km)
Ceiling: 3600 feet AGL
Clouds: scattered clouds at 2800 feet AGL
broken clouds at 3600 feet AGL
overcast cloud deck at 4100 feet AGL
Weather: automated observation with no human augmentation;
there may or may not be significant weather present at this time

METAR text: KMNH 231415Z AUTO 01006KT 10SM -SN BKN026 OVC034 M03/M05 A2973 RMK AO2
Conditions at: KMNH (MONUMENT/ELBERT , CO, US) observed 1415 UTC 23 November 2014
Temperature: -3.0°C (27°F)
Dewpoint: -5.0°C (23°F) [RH = 86%]
Pressure (altimeter): 29.73 inches Hg (1006.9 mb)
Winds: from the N (10 degrees) at 7 MPH (6 knots; 3.1 m/s)
Visibility: 10 or more miles (16+ km)
Ceiling: 2600 feet AGL
Clouds: broken clouds at 2600 feet AGL
overcast cloud deck at 3400 feet AGL
Weather: -SN  (light snow)

METAR text: KMNH 231355Z AUTO 36008KT 10SM BKN038 OVC044 M03/M05 A2973 RMK AO2
Conditions at: KMNH (MONUMENT/ELBERT , CO, US) observed 1355 UTC 23 November 2014
Temperature: -3.0°C (27°F)
Dewpoint: -5.0°C (23°F) [RH = 86%]
Pressure (altimeter): 29.73 inches Hg (1006.9 mb)
Winds: from the N (360 degrees) at 9 MPH (8 knots; 4.2 m/s)
Visibility: 10 or more miles (16+ km)
Ceiling: 3800 feet AGL
Clouds: broken clouds at 3800 feet AGL
overcast cloud deck at 4400 feet AGL
Weather: automated observation with no human augmentation;
there may or may not be significant weather present at this time

METAR text: KMNH 231335Z AUTO 36004KT 10SM BKN044 OVC060 M03/M05 A2971 RMK AO2
Conditions at: KMNH (MONUMENT/ELBERT , CO, US) observed 1335 UTC 23 November 2014
Temperature: -3.0°C (27°F)
Dewpoint: -5.0°C (23°F) [RH = 86%]
Pressure (altimeter): 29.71 inches Hg (1006.2 mb)
Winds: from the N (360 degrees) at 5 MPH (4 knots; 2.1 m/s)
Visibility: 10 or more miles (16+ km)
Ceiling: 4400 feet AGL
Clouds: broken clouds at 4400 feet AGL
overcast cloud deck at 6000 feet AGL
Weather: automated observation with no human augmentation;
there may or may not be significant weather present at this time

METAR text: KMNH 231315Z AUTO 01006KT 10SM SCT024 SCT034 OVC060 M03/M05 A2971 RMK AO2
Conditions at: KMNH (MONUMENT/ELBERT , CO, US) observed 1315 UTC 23 November 2014
Temperature: -3.0°C (27°F)
Dewpoint: -5.0°C (23°F) [RH = 86%]
Pressure (altimeter): 29.71 inches Hg (1006.2 mb)
Winds: from the N (10 degrees) at 7 MPH (6 knots; 3.1 m/s)
Visibility: 10 or more miles (16+ km)
Ceiling: 6000 feet AGL
Clouds: scattered clouds at 2400 feet AGL
scattered clouds at 3400 feet AGL
overcast cloud deck at 6000 feet AGL
Weather: automated observation with no human augmentation;
there may or may not be significant weather present at this time

METAR text: KMNH 231255Z AUTO 02009G14KT 10SM -SN SCT004 SCT017 OVC024 M03/M04 A2971 RMK AO2
Conditions at: KMNH (MONUMENT/ELBERT , CO, US) observed 1255 UTC 23 November 2014
Temperature: -3.0°C (27°F)
Dewpoint: -4.0°C (25°F) [RH = 93%]
Pressure (altimeter): 29.71 inches Hg (1006.2 mb)
Winds: from the NNE (20 degrees) at 10 MPH (9 knots; 4.7 m/sgusting to 16 MPH (14 knots; 7.3 m/s)
Visibility: 10 or more miles (16+ km)
Ceiling: 2400 feet AGL
Clouds: scattered clouds at 400 feet AGL
scattered clouds at 1700 feet AGL
overcast cloud deck at 2400 feet AGL
Weather: -SN  (light snow)

METAR text: KMNH 231235Z AUTO 04008KT 10SM -SN SCT004 BKN007 OVC024 M03/M04 A2971 RMK AO2
Conditions at: KMNH (MONUMENT/ELBERT , CO, US) observed 1235 UTC 23 November 2014
Temperature: -3.0°C (27°F)
Dewpoint: -4.0°C (25°F) [RH = 93%]
Pressure (altimeter): 29.71 inches Hg (1006.2 mb)
Winds: from the NE (40 degrees) at 9 MPH (8 knots; 4.2 m/s)
Visibility: 10 or more miles (16+ km)
Ceiling: 700 feet AGL
Clouds: scattered clouds at 400 feet AGL
broken clouds at 700 feet AGL
overcast cloud deck at 2400 feet AGL
Weather: -SN  (light snow)

METAR text: KMNH 231215Z AUTO 04013KT 10SM UP BKN002 BKN008 OVC017 M03/M03 A2970 RMK AO2
Conditions at: KMNH (MONUMENT/ELBERT , CO, US) observed 1215 UTC 23 November 2014
Temperature: -3.0°C (27°F)
Dewpoint: -3.0°C (27°F) [RH = 100%]
Pressure (altimeter): 29.70 inches Hg (1005.8 mb)
Winds: from the NE (40 degrees) at 15 MPH (13 knots; 6.8 m/s)
Visibility: 10 or more miles (16+ km)
Ceiling: 200 feet AGL
Clouds: broken clouds at 200 feet AGL
broken clouds at 800 feet AGL
overcast cloud deck at 1700 feet AGL
Weather: UP  (unknown precipitation)

METAR text: KMNH 231155Z AUTO 03007KT 10SM UP BKN002 BKN007 OVC039 M02/M02 A2969 RMK AO2 P0001
Conditions at: KMNH (MONUMENT/ELBERT , CO, US) observed 1155 UTC 23 November 2014
Temperature: -2.0°C (28°F)
Dewpoint: -2.0°C (28°F) [RH = 100%]
Pressure (altimeter): 29.69 inches Hg (1005.5 mb)
Winds: from the NNE (30 degrees) at 8 MPH (7 knots; 3.6 m/s)
Visibility: 10 or more miles (16+ km)
Ceiling: 200 feet AGL
Clouds: broken clouds at 200 feet AGL
broken clouds at 700 feet AGL
overcast cloud deck at 3900 feet AGL
Weather: UP  (unknown precipitation)

METAR text: KMNH 231134Z AUTO 04011G16KT 4SM -SN OVC002 M02/M02 A2968 RMK AO2
Conditions at: KMNH (MONUMENT/ELBERT , CO, US) observed 1134 UTC 23 November 2014
Temperature: -2.0°C (28°F)
Dewpoint: -2.0°C (28°F) [RH = 100%]
Pressure (altimeter): 29.68 inches Hg (1005.2 mb)
Winds: from the NE (40 degrees) at 13 MPH (11 knots; 5.7 m/sgusting to 18 MPH (16 knots; 8.3 m/s)
Visibility: 4 miles (6 km)
Ceiling: 200 feet AGL
Clouds: overcast cloud deck at 200 feet AGL
Weather: -SN  (light snow)

METAR text: KMNH 231114Z AUTO 04013KT 3SM -SN OVC002 M01/M02 A2966 RMK AO2
Conditions at: KMNH (MONUMENT/ELBERT , CO, US) observed 1114 UTC 23 November 2014
Temperature: -1.0°C (30°F)
Dewpoint: -2.0°C (28°F) [RH = 93%]
Pressure (altimeter): 29.66 inches Hg (1004.5 mb)
Winds: from the NE (40 degrees) at 15 MPH (13 knots; 6.8 m/s)
Visibility: 3 miles (5 km)
Ceiling: 200 feet AGL
Clouds: overcast cloud deck at 200 feet AGL
Weather: -SN  (light snow)

METAR text: KMNH 231055Z AUTO 03013G20KT 3/4SM SN OVC002 M01/M01 A2966 RMK AO2
Conditions at: KMNH (MONUMENT/ELBERT , CO, US) observed 1055 UTC 23 November 2014
Temperature: -1.0°C (30°F)
Dewpoint: -1.0°C (30°F) [RH = 100%]
Pressure (altimeter): 29.66 inches Hg (1004.5 mb)
Winds: from the NNE (30 degrees) at 15 MPH (13 knots; 6.8 m/sgusting to 23 MPH (20 knots; 10.4 m/s)
Visibility: 0.75 miles (1.21 km)
Ceiling: 200 feet AGL
Clouds: overcast cloud deck at 200 feet AGL
Weather: SN  (snow)

METAR text: KMNH 231035Z AUTO 03008KT 3/4SM SN OVC004 M01/M01 A2966 RMK AO2
Conditions at: KMNH (MONUMENT/ELBERT , CO, US) observed 1035 UTC 23 November 2014
Temperature: -1.0°C (30°F)
Dewpoint: -1.0°C (30°F) [RH = 100%]
Pressure (altimeter): 29.66 inches Hg (1004.5 mb)
Winds: from the NNE (30 degrees) at 9 MPH (8 knots; 4.2 m/s)
Visibility: 0.75 miles (1.21 km)
Ceiling: 400 feet AGL
Clouds: overcast cloud deck at 400 feet AGL
Weather: SN  (snow)

METAR text: KMNH 231015Z AUTO 02013KT 1 1/4SM SN BKN004 BKN008 OVC018 00/M01 A2965 RMK AO2
Conditions at: KMNH (MONUMENT/ELBERT , CO, US) observed 1015 UTC 23 November 2014
Temperature: 0.0°C (32°F)
Dewpoint: -1.0°C (30°F) [RH = 93%]
Pressure (altimeter): 29.65 inches Hg (1004.1 mb)
Winds: from the NNE (20 degrees) at 15 MPH (13 knots; 6.8 m/s)
Visibility: 1.25 miles (2.01 km)
Ceiling: 400 feet AGL
Clouds: broken clouds at 400 feet AGL
broken clouds at 800 feet AGL
overcast cloud deck at 1800 feet AGL
Weather: SN  (snow)

METAR text: KMNH 230954Z AUTO 02010G17KT 7SM -SN SCT020 BKN033 OVC055 01/M03 A2964 RMK AO2
Conditions at: KMNH (MONUMENT/ELBERT , CO, US) observed 0954 UTC 23 November 2014
Temperature: 1.0°C (34°F)
Dewpoint: -3.0°C (27°F) [RH = 75%]
Pressure (altimeter): 29.64 inches Hg (1003.8 mb)
Winds: from the NNE (20 degrees) at 12 MPH (10 knots; 5.2 m/sgusting to 20 MPH (17 knots; 8.8 m/s)
Visibility: 7 miles (11 km)
Ceiling: 3300 feet AGL
Clouds: scattered clouds at 2000 feet AGL
broken clouds at 3300 feet AGL
overcast cloud deck at 5500 feet AGL
Weather: -SN  (light snow)

METAR text: KMNH 230935Z AUTO 02006KT 10SM -SN SCT047 OVC060 01/M04 A2963 RMK AO2
Conditions at: KMNH (MONUMENT/ELBERT , CO, US) observed 0935 UTC 23 November 2014
Temperature: 1.0°C (34°F)
Dewpoint: -4.0°C (25°F) [RH = 69%]
Pressure (altimeter): 29.63 inches Hg (1003.5 mb)
Winds: from the NNE (20 degrees) at 7 MPH (6 knots; 3.1 m/s)
Visibility: 10 or more miles (16+ km)
Ceiling: 6000 feet AGL
Clouds: scattered clouds at 4700 feet AGL
overcast cloud deck at 6000 feet AGL
Weather: -SN  (light snow)

METAR text: KMNH 230915Z AUTO 05008KT 10SM BKN060 BKN080 OVC120 01/M05 A2961 RMK AO2
Conditions at: KMNH (MONUMENT/ELBERT , CO, US) observed 0915 UTC 23 November 2014
Temperature: 1.0°C (34°F)
Dewpoint: -5.0°C (23°F) [RH = 64%]
Pressure (altimeter): 29.61 inches Hg (1002.8 mb)
Winds: from the NE (50 degrees) at 9 MPH (8 knots; 4.2 m/s)
Visibility: 10 or more miles (16+ km)
Ceiling: 6000 feet AGL
Clouds: broken clouds at 6000 feet AGL
broken clouds at 8000 feet AGL
overcast cloud deck at 12000 feet AGL
Weather: automated observation with no human augmentation;
there may or may not be significant weather present at this time

METAR text: KMNH 230855Z AUTO 02005KT 10SM SCT060 SCT080 BKN100 00/M05 A2960 RMK AO2
Conditions at: KMNH (MONUMENT/ELBERT , CO, US) observed 0855 UTC 23 November 2014
Temperature: 0.0°C (32°F)
Dewpoint: -5.0°C (23°F) [RH = 69%]
Pressure (altimeter): 29.60 inches Hg (1002.5 mb)
Winds: from the NNE (20 degrees) at 6 MPH (5 knots; 2.6 m/s)
Visibility: 10 or more miles (16+ km)
Ceiling: 10000 feet AGL
Clouds: scattered clouds at 6000 feet AGL
scattered clouds at 8000 feet AGL
broken clouds at 10000 feet AGL
Weather: automated observation with no human augmentation;
there may or may not be significant weather present at this time

METAR text: KMNH 230835Z AUTO 36004KT 10SM SCT085 SCT110 00/M06 A2958 RMK AO2
Conditions at: KMNH (MONUMENT/ELBERT , CO, US) observed 0835 UTC 23 November 2014
Temperature: 0.0°C (32°F)
Dewpoint: -6.0°C (21°F) [RH = 64%]
Pressure (altimeter): 29.58 inches Hg (1001.8 mb)
Winds: from the N (360 degrees) at 5 MPH (4 knots; 2.1 m/s)
Visibility: 10 or more miles (16+ km)
Ceiling: at least 12,000 feet AGL
Clouds: scattered clouds at 8500 feet AGL
scattered clouds at 11000 feet AGL
Weather: automated observation with no human augmentation;
there may or may not be significant weather present at this time

METAR text: KMNH 230815Z AUTO 28006KT 10SM SCT085 SCT110 00/M06 A2958 RMK AO2
Conditions at: KMNH (MONUMENT/ELBERT , CO, US) observed 0815 UTC 23 November 2014
Temperature: 0.0°C (32°F)
Dewpoint: -6.0°C (21°F) [RH = 64%]
Pressure (altimeter): 29.58 inches Hg (1001.8 mb)
Winds: from the W (280 degrees) at 7 MPH (6 knots; 3.1 m/s)
Visibility: 10 or more miles (16+ km)
Ceiling: at least 12,000 feet AGL
Clouds: scattered clouds at 8500 feet AGL
scattered clouds at 11000 feet AGL
Weather: automated observation with no human augmentation;
there may or may not be significant weather present at this time

METAR text: KMNH 230755Z AUTO 26007KT 10SM CLR 01/M06 A2957 RMK AO2
Conditions at: KMNH (MONUMENT/ELBERT , CO, US) observed 0755 UTC 23 November 2014
Temperature: 1.0°C (34°F)
Dewpoint: -6.0°C (21°F) [RH = 59%]
Pressure (altimeter): 29.57 inches Hg (1001.4 mb)
Winds: from the W (260 degrees) at 8 MPH (7 knots; 3.6 m/s)
Visibility: 10 or more miles (16+ km)
Ceiling: at least 12,000 feet AGL
Clouds: sky clear below 12,000 feet AGL
Weather: automated observation with no human augmentation;
there may or may not be significant weather present at this time

METAR text: KMNH 230735Z AUTO 24006KT 10SM CLR 01/M06 A2957 RMK AO2
Conditions at: KMNH (MONUMENT/ELBERT , CO, US) observed 0735 UTC 23 November 2014
Temperature: 1.0°C (34°F)
Dewpoint: -6.0°C (21°F) [RH = 59%]
Pressure (altimeter): 29.57 inches Hg (1001.4 mb)
Winds: from the WSW (240 degrees) at 7 MPH (6 knots; 3.1 m/s)
Visibility: 10 or more miles (16+ km)
Ceiling: at least 12,000 feet AGL
Clouds: sky clear below 12,000 feet AGL
Weather: automated observation with no human augmentation;
there may or may not be significant weather present at this time

METAR text: KMNH 230715Z AUTO 23005KT 10SM CLR 02/M06 A2958 RMK AO2
Conditions at: KMNH (MONUMENT/ELBERT , CO, US) observed 0715 UTC 23 November 2014
Temperature: 2.0°C (36°F)
Dewpoint: -6.0°C (21°F) [RH = 55%]
Pressure (altimeter): 29.58 inches Hg (1001.8 mb)
Winds: from the SW (230 degrees) at 6 MPH (5 knots; 2.6 m/s)
Visibility: 10 or more miles (16+ km)
Ceiling: at least 12,000 feet AGL
Clouds: sky clear below 12,000 feet AGL
Weather: automated observation with no human augmentation;
there may or may not be significant weather present at this time

METAR text: KMNH 230655Z AUTO 23008KT 10SM SCT110 03/M05 A2960 RMK AO2
Conditions at: KMNH (MONUMENT/ELBERT , CO, US) observed 0655 UTC 23 November 2014
Temperature: 3.0°C (37°F)
Dewpoint: -5.0°C (23°F) [RH = 56%]
Pressure (altimeter): 29.60 inches Hg (1002.5 mb)
Winds: from the SW (230 degrees) at 9 MPH (8 knots; 4.2 m/s)
Visibility: 10 or more miles (16+ km)
Ceiling: at least 12,000 feet AGL
Clouds: scattered clouds at 11000 feet AGL
Weather: automated observation with no human augmentation;
there may or may not be significant weather present at this time

METAR text: KMNH 230634Z AUTO 23009KT 10SM BKN110 04/M05 A2961 RMK AO2
Conditions at: KMNH (MONUMENT/ELBERT , CO, US) observed 0634 UTC 23 November 2014
Temperature: 4.0°C (39°F)
Dewpoint: -5.0°C (23°F) [RH = 52%]
Pressure (altimeter): 29.61 inches Hg (1002.8 mb)
Winds: from the SW (230 degrees) at 10 MPH (9 knots; 4.7 m/s)
Visibility: 10 or more miles (16+ km)
Ceiling: 11000 feet AGL
Clouds: broken clouds at 11000 feet AGL
Weather: automated observation with no human augmentation;
there may or may not be significant weather present at this time

METAR text: KMNH 230614Z AUTO 23010G15KT 10SM SCT110 04/M05 A2961 RMK AO2
Conditions at: KMNH (MONUMENT/ELBERT , CO, US) observed 0614 UTC 23 November 2014
Temperature: 4.0°C (39°F)
Dewpoint: -5.0°C (23°F) [RH = 52%]
Pressure (altimeter): 29.61 inches Hg (1002.8 mb)
Winds: from the SW (230 degrees) at 12 MPH (10 knots; 5.2 m/sgusting to 17 MPH (15 knots; 7.8 m/s)
Visibility: 10 or more miles (16+ km)
Ceiling: at least 12,000 feet AGL
Clouds: scattered clouds at 11000 feet AGL
Weather: automated observation with no human augmentation;
there may or may not be significant weather present at this time

METAR text: KMNH 230555Z AUTO 23014G17KT 10SM CLR 03/M06 A2961 RMK AO2
Conditions at: KMNH (MONUMENT/ELBERT , CO, US) observed 0555 UTC 23 November 2014
Temperature: 3.0°C (37°F)
Dewpoint: -6.0°C (21°F) [RH = 52%]
Pressure (altimeter): 29.61 inches Hg (1002.8 mb)
Winds: from the SW (230 degrees) at 16 MPH (14 knots; 7.3 m/sgusting to 20 MPH (17 knots; 8.8 m/s)
Visibility: 10 or more miles (16+ km)
Ceiling: at least 12,000 feet AGL
Clouds: sky clear below 12,000 feet AGL
Weather: automated observation with no human augmentation;
there may or may not be significant weather present at this time

METAR text: KMNH 230535Z AUTO 23012G16KT 10SM CLR 03/M06 A2960 RMK AO2
Conditions at: KMNH (MONUMENT/ELBERT , CO, US) observed 0535 UTC 23 November 2014
Temperature: 3.0°C (37°F)
Dewpoint: -6.0°C (21°F) [RH = 52%]
Pressure (altimeter): 29.60 inches Hg (1002.5 mb)
Winds: from the SW (230 degrees) at 14 MPH (12 knots; 6.2 m/sgusting to 18 MPH (16 knots; 8.3 m/s)
Visibility: 10 or more miles (16+ km)
Ceiling: at least 12,000 feet AGL
Clouds: sky clear below 12,000 feet AGL
Weather: automated observation with no human augmentation;
there may or may not be significant weather present at this time

METAR text: KMNH 230514Z AUTO 22008KT 10SM CLR 02/M06 A2960 RMK AO2
Conditions at: KMNH (MONUMENT/ELBERT , CO, US) observed 0514 UTC 23 November 2014
Temperature: 2.0°C (36°F)
Dewpoint: -6.0°C (21°F) [RH = 55%]
Pressure (altimeter): 29.60 inches Hg (1002.5 mb)
Winds: from the SW (220 degrees) at 9 MPH (8 knots; 4.2 m/s)
Visibility: 10 or more miles (16+ km)
Ceiling: at least 12,000 feet AGL
Clouds: sky clear below 12,000 feet AGL
Weather: automated observation with no human augmentation;
there may or may not be significant weather present at this time

METAR text: KMNH 230455Z AUTO 21005KT 10SM CLR 03/M06 A2961 RMK AO2
Conditions at: KMNH (MONUMENT/ELBERT , CO, US) observed 0455 UTC 23 November 2014
Temperature: 3.0°C (37°F)
Dewpoint: -6.0°C (21°F) [RH = 52%]
Pressure (altimeter): 29.61 inches Hg (1002.8 mb)
Winds: from the SSW (210 degrees) at 6 MPH (5 knots; 2.6 m/s)
Visibility: 10 or more miles (16+ km)
Ceiling: at least 12,000 feet AGL
Clouds: sky clear below 12,000 feet AGL
Weather: automated observation with no human augmentation;
there may or may not be significant weather present at this time

METAR text: KMNH 230434Z AUTO 24010KT 10SM CLR 04/M06 A2961 RMK AO2
Conditions at: KMNH (MONUMENT/ELBERT , CO, US) observed 0434 UTC 23 November 2014
Temperature: 4.0°C (39°F)
Dewpoint: -6.0°C (21°F) [RH = 48%]
Pressure (altimeter): 29.61 inches Hg (1002.8 mb)
Winds: from the WSW (240 degrees) at 12 MPH (10 knots; 5.2 m/s)
Visibility: 10 or more miles (16+ km)
Ceiling: at least 12,000 feet AGL
Clouds: sky clear below 12,000 feet AGL
Weather: automated observation with no human augmentation;
there may or may not be significant weather present at this time

METAR text: KMNH 230415Z AUTO 25009KT 10SM CLR 04/M06 A2962 RMK AO2
Conditions at: KMNH (MONUMENT/ELBERT , CO, US) observed 0415 UTC 23 November 2014
Temperature: 4.0°C (39°F)
Dewpoint: -6.0°C (21°F) [RH = 48%]
Pressure (altimeter): 29.62 inches Hg (1003.1 mb)
Winds: from the WSW (250 degrees) at 10 MPH (9 knots; 4.7 m/s)
Visibility: 10 or more miles (16+ km)
Ceiling: at least 12,000 feet AGL
Clouds: sky clear below 12,000 feet AGL
Weather: automated observation with no human augmentation;
there may or may not be significant weather present at this time